Time;durP1;ratioP1;P1;durP2;ratioP2;P2;SDS_P1;SDS_P2;PMS_P1;PMS_P2;Temp;Humidity;BMP_temperature;BMP_pressure;BME280_temperature;BME280_humidity;BME280_pressure;Samples;Min_cycle;Max_cycle;Signal;HPM_P1;HPM_P2
2021/01/25 05:10:01;;;;;;;3.07;2.77;;;;;;;22.38;47.45;96844.31;20917125;23;20265;-68
2021/01/25 05:20:07;;;;;;;2.50;2.30;;;;;;;22.51;47.32;96853.81;20742437;28;20644;-68
2021/01/25 05:30:10;;;;;;;3.00;2.80;;;;;;;22.71;46.79;96858.84;20746704;28;20210;-69
2021/01/25 05:40:15;;;;;;;3.27;2.70;;;;;;;22.86;46.62;96878.38;20744945;28;20214;-69
2021/01/25 05:50:32;;;;;;;2.97;2.20;;;;;;;22.96;46.44;96881.28;20738806;28;20345;-68
2021/01/25 06:00:34;;;;;;;3.40;3.10;;;;;;;22.94;46.79;96879.91;20733070;28;20218;-68
2021/01/25 06:10:45;;;;;;;2.97;2.77;;;;;;;22.87;46.76;96889.63;20733328;28;20218;-68
2021/01/25 06:20:47;;;;;;;2.53;2.30;;;;;;;22.82;46.98;96889.50;20721178;28;20883;-67
2021/01/25 06:30:49;;;;;;;2.90;2.70;;;;;;;22.75;47.04;96907.03;20699882;28;20206;-67
2021/01/25 06:40:51;;;;;;;2.60;2.40;;;;;;;22.68;47.21;96906.31;20691696;28;20218;-69
2021/01/25 06:50:53;;;;;;;2.67;2.47;;;;;;;22.64;47.48;96903.31;20705264;28;20287;-69
2021/01/25 07:00:55;;;;;;;9.37;7.47;;;;;;;21.01;38.79;96906.94;20701153;28;20227;-69
2021/01/25 07:10:58;;;;;;;12.50;7.37;;;;;;;21.44;39.75;96915.78;20711508;28;20218;-72
2021/01/25 07:21:00;;;;;;;9.60;5.23;;;;;;;21.95;40.30;96921.72;20731606;28;20222;-69
2021/01/25 07:31:02;;;;;;;4.47;4.07;;;;;;;22.39;41.06;96924.22;20736417;28;20290;-69
2021/01/25 07:41:04;;;;;;;5.40;3.70;;;;;;;22.71;41.44;96926.75;20695744;28;20217;-70
2021/01/25 07:51:06;;;;;;;5.27;3.20;;;;;;;22.99;41.62;96914.81;20744739;28;20218;-70
2021/01/25 08:01:13;;;;;;;2.90;2.50;;;;;;;23.05;42.28;96931.44;20724215;28;20277;-70
2021/01/25 08:11:16;;;;;;;1.97;1.87;;;;;;;22.87;43.36;96947.91;20729271;28;20644;-71
2021/01/25 08:21:20;;;;;;;2.03;1.93;;;;;;;22.79;43.84;96942.94;20737018;28;20214;-69
2021/01/25 08:31:30;;;;;;;2.80;1.93;;;;;;;22.73;44.42;96966.50;20713375;28;20210;-70
2021/01/25 08:41:32;;;;;;;2.97;2.43;;;;;;;22.88;44.24;96966.97;20739845;28;20222;-68
2021/01/25 08:51:34;;;;;;;2.37;2.00;;;;;;;22.94;44.26;96976.56;20735539;28;20229;-70
2021/01/25 09:01:37;;;;;;;2.30;2.10;;;;;;;22.99;44.18;96992.41;20733408;28;20258;-69
2021/01/25 09:11:38;;;;;;;2.60;1.90;;;;;;;23.00;44.54;96986.16;20732418;28;20654;-69
2021/01/25 09:21:41;;;;;;;4.20;1.87;;;;;;;22.99;44.37;96987.94;20736227;28;20278;-68
2021/01/25 09:31:43;;;;;;;2.73;2.53;;;;;;;22.97;44.53;97003.06;20764670;28;20341;-70
2021/01/25 09:41:46;;;;;;;1.97;1.70;;;;;;;22.97;44.79;97018.75;20699591;28;20268;-69
2021/01/25 09:51:48;;;;;;;2.17;1.97;;;;;;;22.96;44.95;97037.22;20736975;28;20214;-70
2021/01/25 10:01:50;;;;;;;3.20;2.00;;;;;;;22.96;44.96;97058.13;20735051;28;20218;-70
2021/01/25 10:11:52;;;;;;;2.37;2.17;;;;;;;22.92;45.10;97059.56;20747215;28;20288;-70
2021/01/25 10:21:55;;;;;;;2.20;2.10;;;;;;;22.97;45.21;97072.81;20689509;28;20265;-69
2021/01/25 10:31:57;;;;;;;2.30;2.07;;;;;;;23.01;45.24;97087.81;20720320;28;20213;-70
2021/01/25 10:42:00;;;;;;;3.30;2.40;;;;;;;23.04;45.10;97091.84;20723413;28;20321;-70
2021/01/25 10:52:01;;;;;;;1.87;1.77;;;;;;;23.03;45.13;97093.66;20719229;28;20202;-69
2021/01/25 11:02:05;;;;;;;2.37;2.17;;;;;;;23.06;45.09;97097.63;20719901;28;20689;-71
2021/01/25 11:12:07;;;;;;;2.70;2.20;;;;;;;23.08;45.22;97096.41;20728999;28;20202;-70
2021/01/25 11:22:09;;;;;;;2.17;1.70;;;;;;;23.04;45.22;97104.91;20728248;28;20243;-69
2021/01/25 11:32:11;;;;;;;2.10;1.90;;;;;;;23.02;45.11;97105.13;20721153;28;20214;-68
2021/01/25 11:42:13;;;;;;;3.30;2.00;;;;;;;22.99;45.47;97113.34;20724783;28;20237;-70
2021/01/25 11:52:15;;;;;;;1.97;1.83;;;;;;;22.94;45.81;97125.47;20713024;28;20259;-70
2021/01/25 12:02:19;;;;;;;2.70;2.03;;;;;;;22.91;45.87;97131.09;20707059;28;20808;-70
2021/01/25 12:12:20;;;;;;;2.70;2.43;;;;;;;22.89;45.74;97133.16;20731040;28;20215;-71
2021/01/25 12:22:22;;;;;;;2.43;2.20;;;;;;;22.87;45.90;97135.16;20717108;28;20217;-69
2021/01/25 12:32:24;;;;;;;3.40;1.73;;;;;;;22.96;45.63;97146.94;20751751;28;20255;-71
2021/01/25 12:42:26;;;;;;;3.60;2.20;;;;;;;23.18;45.31;97150.81;20744113;28;20272;-70
2021/01/25 12:52:30;;;;;;;3.83;2.40;;;;;;;23.38;44.93;97160.13;20712451;28;20276;-70
2021/01/25 13:02:32;;;;;;;2.53;2.33;;;;;;;23.43;45.16;97162.88;20735985;28;20222;-71
2021/01/25 13:12:36;;;;;;;2.60;2.27;;;;;;;23.43;45.40;97172.53;20734951;28;20299;-70
2021/01/25 13:22:39;;;;;;;2.67;2.00;;;;;;;23.42;45.60;97186.63;20733823;28;20244;-69
2021/01/25 13:32:40;;;;;;;2.50;2.27;;;;;;;23.36;45.47;97192.72;20733756;28;20226;-69
2021/01/25 13:42:43;;;;;;;4.30;2.80;;;;;;;23.31;45.63;97210.88;20732148;28;20582;-70
2021/01/25 13:52:45;;;;;;;6.00;2.40;;;;;;;23.26;45.85;97224.53;20724943;28;20214;-69
2021/01/25 14:02:48;;;;;;;2.70;2.20;;;;;;;23.23;46.11;97232.00;20719501;28;20295;-69
2021/01/25 14:12:49;;;;;;;5.77;2.10;;;;;;;23.13;46.08;97242.09;20725720;28;20272;-68
2021/01/25 14:22:51;;;;;;;5.30;2.70;;;;;;;23.10;46.09;97255.59;20735345;28;20219;-68
2021/01/25 14:32:53;;;;;;;2.23;2.13;;;;;;;23.06;46.23;97267.47;20727259;28;20294;-67
2021/01/25 14:42:56;;;;;;;3.53;1.97;;;;;;;23.05;46.31;97263.28;20729533;28;20268;-67
2021/01/25 14:52:57;;;;;;;2.30;2.10;;;;;;;23.05;46.62;97279.75;20713741;28;20297;-71
2021/01/25 15:03:00;;;;;;;6.22;2.70;;;;;;;23.23;45.14;97299.94;20726176;28;20857;-73
2021/01/25 15:13:01;;;;;;;4.70;2.83;;;;;;;22.54;47.18;97322.56;20703544;28;20218;-74
2021/01/25 15:23:04;;;;;;;2.70;2.50;;;;;;;22.49;48.20;97341.41;20702274;28;20284;-74
2021/01/25 15:33:06;;;;;;;3.93;2.80;;;;;;;22.45;48.51;97360.31;20711181;28;20226;-74
2021/01/25 15:43:08;;;;;;;2.60;2.40;;;;;;;22.44;48.66;97379.59;20721617;28;20647;-74
2021/01/25 15:53:10;;;;;;;3.07;2.87;;;;;;;22.42;48.67;97391.03;20729513;28;20222;-74
2021/01/25 16:03:12;;;;;;;2.77;2.20;;;;;;;22.45;48.88;97405.50;20717178;28;20296;-75
2021/01/25 16:13:14;;;;;;;4.40;2.33;;;;;;;22.48;48.64;97423.34;20711266;28;20235;-72
2021/01/25 16:23:17;;;;;;;9.50;3.23;;;;;;;22.55;48.41;97441.66;20714797;28;20211;-73
2021/01/25 16:33:19;;;;;;;4.37;2.70;;;;;;;22.57;48.47;97450.09;20721391;28;20214;-73
2021/01/25 16:43:23;;;;;;;9.93;2.90;;;;;;;22.56;48.41;97461.53;20721713;28;20218;-73
2021/01/25 16:53:25;;;;;;;10.30;2.63;;;;;;;22.54;48.47;97471.41;20709478;28;20218;-72
2021/01/25 17:03:28;;;;;;;6.33;4.13;;;;;;;22.13;45.99;97488.00;20711165;28;20665;-74
2021/01/25 17:13:29;;;;;;;3.60;3.30;;;;;;;22.22;46.24;97502.44;20711577;28;20340;-74
2021/01/25 17:23:32;;;;;;;7.27;4.30;;;;;;;22.42;45.92;97513.72;20714500;28;20218;-73
2021/01/25 17:33:33;;;;;;;3.37;3.10;;;;;;;22.58;46.06;97525.63;20717344;28;20301;-76
2021/01/25 17:43:37;;;;;;;4.20;3.80;;;;;;;22.64;46.20;97537.84;20711213;28;20276;-75
2021/01/25 17:53:39;;;;;;;4.50;4.00;;;;;;;22.64;46.51;97558.75;20707579;28;20222;-75
2021/01/25 18:03:42;;;;;;;3.80;3.50;;;;;;;22.63;46.71;97570.22;20721418;28;20276;-75
2021/01/25 18:13:44;;;;;;;3.70;3.40;;;;;;;22.59;46.79;97584.66;20717642;28;20276;-74
2021/01/25 18:23:49;;;;;;;4.23;3.83;;;;;;;22.57;47.03;97598.94;20707315;28;20222;-76
2021/01/25 18:33:51;;;;;;;5.23;3.27;;;;;;;22.56;47.41;97612.97;20714084;28;20221;-78
2021/01/25 18:43:53;;;;;;;3.77;3.47;;;;;;;22.54;47.37;97625.44;20724102;28;20214;-75
2021/01/25 18:53:55;;;;;;;3.43;3.10;;;;;;;22.53;47.35;97635.06;20721310;28;20222;-74
2021/01/25 19:03:57;;;;;;;3.97;3.53;;;;;;;22.54;47.54;97652.34;20724912;28;20226;-74
2021/01/25 19:13:59;;;;;;;3.30;3.10;;;;;;;22.60;47.35;97663.81;20720487;28;20328;-75
2021/01/25 19:24:01;;;;;;;3.70;3.40;;;;;;;22.63;47.33;97684.31;20720812;28;20283;-74
2021/01/25 19:34:03;;;;;;;3.73;3.43;;;;;;;22.62;47.45;97695.75;20714734;28;20225;-75
2021/01/25 19:44:06;;;;;;;3.60;3.23;;;;;;;22.60;47.70;97713.44;20712657;28;20273;-77
2021/01/25 19:54:08;;;;;;;3.57;3.20;;;;;;;22.59;47.72;97732.72;20731574;28;20523;-77
2021/01/25 20:04:10;;;;;;;3.43;3.17;;;;;;;22.56;47.81;97744.34;20733742;28;20253;-76
2021/01/25 20:14:12;;;;;;;6.17;3.70;;;;;;;22.54;47.90;97772.47;20734047;28;20218;-77
2021/01/25 20:24:15;;;;;;;3.20;3.00;;;;;;;22.52;47.85;97791.91;20746366;28;20238;-75
2021/01/25 20:34:16;;;;;;;4.13;3.03;;;;;;;22.50;47.79;97796.50;20742825;28;20218;-75
2021/01/25 20:44:19;;;;;;;4.07;3.50;;;;;;;22.50;47.97;97813.00;20743724;28;20218;-75
2021/01/25 20:54:21;;;;;;;3.57;3.30;;;;;;;22.51;47.98;97825.03;20745086;28;20218;-78
2021/01/25 21:04:23;;;;;;;3.47;3.17;;;;;;;22.52;47.84;97846.75;20745598;28;20280;-76
2021/01/25 21:14:25;;;;;;;3.60;3.30;;;;;;;22.52;48.12;97849.38;20745865;28;20218;-77
2021/01/25 21:24:27;;;;;;;3.73;3.43;;;;;;;22.49;48.07;97871.41;20742352;28;20219;-77
2021/01/25 21:34:29;;;;;;;3.40;3.20;;;;;;;22.45;47.94;97879.84;20744635;28;20222;-77
2021/01/25 21:44:31;;;;;;;3.80;3.60;;;;;;;22.42;48.06;97897.50;20744752;28;20245;-79
2021/01/25 21:54:33;;;;;;;3.47;3.17;;;;;;;22.37;47.98;97896.47;20745545;28;20218;-77
2021/01/25 22:04:36;;;;;;;4.30;3.90;;;;;;;22.46;47.24;97900.53;20732981;28;20262;-76
2021/01/25 22:14:37;;;;;;;4.13;3.83;;;;;;;22.64;46.60;97913.94;20742349;28;20590;-78
2021/01/25 22:24:40;;;;;;;3.87;3.60;;;;;;;22.69;46.52;97910.78;20743343;28;20222;-78
2021/01/25 22:34:42;;;;;;;4.73;4.33;;;;;;;22.67;46.40;97933.66;20743001;28;20245;-77
2021/01/25 22:44:44;;;;;;;4.33;3.60;;;;;;;22.63;46.78;97958.53;20742981;28;20218;-77
2021/01/25 22:54:46;;;;;;;3.73;3.30;;;;;;;22.55;46.96;97956.88;20740381;28;20261;-78
2021/01/25 23:04:48;;;;;;;3.67;3.47;;;;;;;22.53;46.87;97976.31;20739901;28;20230;-77
2021/01/25 23:14:50;;;;;;;4.97;3.90;;;;;;;22.50;47.23;97979.28;20739773;28;20210;-75
2021/01/25 23:24:52;;;;;;;4.70;4.00;;;;;;;22.47;47.39;97990.94;20720919;28;20272;-76
2021/01/25 23:34:54;;;;;;;4.30;3.83;;;;;;;22.44;47.55;97990.50;20736867;28;20268;-78
2021/01/25 23:44:56;;;;;;;4.00;3.70;;;;;;;22.42;47.65;97987.28;20737666;28;20245;-77
2021/01/25 23:54:58;;;;;;;3.60;3.07;;;;;;;22.39;47.60;98006.72;20749304;28;20276;-77
